createdAt,value
2022-12-19T00:00:14.725Z,0.31
2022-12-19T00:01:10.740Z,0.30
2022-12-19T00:02:10.877Z,0.30
2022-12-19T00:03:11.119Z,0.31
2022-12-19T00:04:10.773Z,0.25
2022-12-19T00:05:10.710Z,0.35
2022-12-19T00:06:10.722Z,0.35
2022-12-19T00:07:10.680Z,0.35
2022-12-19T00:08:17.155Z,0.37
2022-12-19T00:09:11.660Z,0.26
2022-12-19T00:10:10.651Z,0.22
2022-12-19T00:11:10.633Z,0.16
2022-12-19T00:12:14.565Z,0.15
2022-12-19T00:13:11.653Z,0.10
2022-12-19T00:14:10.618Z,0.13
2022-12-19T00:15:10.601Z,0.08
2022-12-19T00:16:10.658Z,0.05
2022-12-19T00:17:10.574Z,0.15
2022-12-19T00:18:10.582Z,0.07
2022-12-19T00:19:10.679Z,0.01
2022-12-19T00:20:10.549Z,0.04
2022-12-19T00:21:10.540Z,0.08
2022-12-19T00:22:11.411Z,0.10
2022-12-19T00:23:10.561Z,0.04
2022-12-19T00:24:20.411Z,0.04
2022-12-19T00:25:11.574Z,-0.03
2022-12-19T00:26:10.509Z,-0.01
2022-12-19T00:27:10.474Z,-0.13
2022-12-19T00:28:10.534Z,-0.09
2022-12-19T00:29:14.245Z,-0.05
2022-12-19T00:30:10.448Z,-0.14
2022-12-19T00:31:10.472Z,-0.14
2022-12-19T00:32:10.437Z,-0.08
2022-12-19T00:33:10.537Z,-0.02
2022-12-19T00:34:10.422Z,-0.19
2022-12-19T00:35:10.498Z,-0.12
2022-12-19T00:36:10.375Z,-0.06
2022-12-19T00:37:10.420Z,-0.12
2022-12-19T00:38:10.375Z,-0.13
2022-12-19T00:39:10.394Z,-0.17
2022-12-19T00:40:10.333Z,-0.13
2022-12-19T00:41:10.336Z,-0.19
2022-12-19T00:42:10.328Z,-0.17
2022-12-19T00:43:10.336Z,-0.17
2022-12-19T00:44:10.362Z,-0.17
2022-12-19T00:45:10.285Z,-0.21
2022-12-19T00:46:10.342Z,-0.23
2022-12-19T00:47:10.259Z,-0.20
2022-12-19T00:48:10.328Z,-0.21
2022-12-19T00:49:10.238Z,-0.23
2022-12-19T00:50:10.235Z,-0.21
2022-12-19T00:51:10.334Z,-0.24
2022-12-19T00:52:10.244Z,-0.20
2022-12-19T00:53:10.233Z,-0.24
2022-12-19T00:54:10.189Z,-0.24
2022-12-19T00:55:16.423Z,-0.20
2022-12-19T00:56:11.171Z,-0.23
2022-12-19T00:57:10.163Z,-0.23
2022-12-19T00:58:10.167Z,-0.26
2022-12-19T00:59:10.134Z,-0.26
2022-12-19T01:00:10.129Z,-0.30
2022-12-19T01:01:10.177Z,-0.38
2022-12-19T01:02:10.243Z,-0.35
2022-12-19T01:03:10.193Z,-0.30
2022-12-19T01:05:11.083Z,-0.31
2022-12-19T01:06:10.056Z,-0.38
2022-12-19T01:07:10.157Z,-0.34
2022-12-19T01:08:10.083Z,-0.27
2022-12-19T01:09:10.025Z,-0.39
2022-12-19T01:10:10.012Z,-0.35
2022-12-19T01:11:10.050Z,-0.38
2022-12-19T01:12:10.030Z,-0.24
2022-12-19T01:13:09.987Z,-0.23
2022-12-19T01:14:09.971Z,-0.13
2022-12-19T01:15:09.979Z,-0.16
2022-12-19T01:16:10.049Z,-0.16
2022-12-19T01:17:09.967Z,-0.19
2022-12-19T01:18:09.956Z,-0.17
2022-12-19T01:19:10.328Z,-0.24
2022-12-19T01:20:09.916Z,-0.32
2022-12-19T01:21:09.923Z,-0.27
2022-12-19T01:22:09.894Z,-0.35
2022-12-19T01:23:10.016Z,-0.31
2022-12-19T01:24:09.895Z,-0.26
2022-12-19T01:25:09.869Z,-0.27
2022-12-19T01:26:09.855Z,-0.21
2022-12-19T01:27:09.839Z,-0.23
2022-12-19T01:28:09.855Z,-0.23
2022-12-19T01:29:09.844Z,-0.19
2022-12-19T01:30:09.805Z,-0.20
2022-12-19T01:31:09.799Z,-0.19
2022-12-19T01:32:09.850Z,-0.19
2022-12-19T01:33:09.790Z,-0.20
2022-12-19T01:34:09.765Z,-0.14
2022-12-19T01:35:20.720Z,-0.17
2022-12-19T01:36:10.741Z,-0.12
2022-12-19T01:37:09.750Z,-0.17
2022-12-19T01:38:09.755Z,-0.14
2022-12-19T01:39:09.830Z,-0.05
2022-12-19T01:40:09.701Z,-0.08
2022-12-19T01:41:09.704Z,-0.12
2022-12-19T01:42:09.689Z,-0.09
2022-12-19T01:43:09.698Z,-0.03
2022-12-19T01:44:09.664Z,-0.01
2022-12-19T01:45:13.447Z,-0.05
2022-12-19T01:46:09.702Z,0.02
2022-12-19T01:47:09.626Z,0.07
2022-12-19T01:48:09.653Z,0.02
2022-12-19T01:49:09.628Z,0.05
2022-12-19T01:50:09.598Z,-0.01
2022-12-19T01:51:09.581Z,0.07
2022-12-19T01:52:10.363Z,0.02
2022-12-19T01:53:10.621Z,0.01
2022-12-19T01:54:09.555Z,0.08
2022-12-19T01:55:09.647Z,0.04
2022-12-19T01:56:09.589Z,0.05
2022-12-19T01:57:09.493Z,0.04
2022-12-19T01:58:09.526Z,0.10
2022-12-19T01:59:09.475Z,0.05
2022-12-19T02:00:09.496Z,0.07
2022-12-19T02:01:09.525Z,0.07
2022-12-19T02:02:09.592Z,0.08
2022-12-19T02:03:10.559Z,0.08
2022-12-19T02:04:09.422Z,0.12
2022-12-19T02:05:09.424Z,0.22
2022-12-19T02:06:09.419Z,0.16
2022-12-19T02:07:16.353Z,0.10
2022-12-19T02:08:10.402Z,0.12
2022-12-19T02:09:09.373Z,0.22
2022-12-19T02:10:09.376Z,0.22
2022-12-19T02:11:09.467Z,0.22
2022-12-19T02:12:09.373Z,0.15
2022-12-19T02:13:09.358Z,0.20
2022-12-19T02:14:09.366Z,0.22
2022-12-19T02:15:09.317Z,0.22
2022-12-19T02:16:09.339Z,0.22
2022-12-19T02:17:09.306Z,0.23
2022-12-19T02:18:09.306Z,0.25
2022-12-19T02:19:09.282Z,0.34
2022-12-19T02:20:09.247Z,0.31
2022-12-19T02:21:09.269Z,0.30
2022-12-19T02:22:09.300Z,0.34
2022-12-19T02:23:09.512Z,0.34
2022-12-19T02:24:09.226Z,0.31
2022-12-19T02:25:09.202Z,0.34
2022-12-19T02:26:09.198Z,0.48
2022-12-19T02:27:09.301Z,0.59
2022-12-19T02:28:09.193Z,0.43
2022-12-19T02:29:09.162Z,0.48
2022-12-19T02:30:09.185Z,0.52
2022-12-19T02:31:16.628Z,0.60
2022-12-19T02:32:10.208Z,0.52
2022-12-19T02:33:09.141Z,0.64
2022-12-19T02:34:09.117Z,0.59
2022-12-19T02:35:09.105Z,0.62
2022-12-19T02:36:09.135Z,0.53
2022-12-19T02:37:09.098Z,0.64
2022-12-19T02:38:09.387Z,0.68
2022-12-19T02:39:09.105Z,0.64
2022-12-19T02:40:09.087Z,0.72
2022-12-19T02:41:09.131Z,0.62
2022-12-19T02:42:09.073Z,0.68
2022-12-19T02:43:09.163Z,0.57
2022-12-19T02:44:09.052Z,0.62
2022-12-19T02:45:09.013Z,0.60
2022-12-19T02:46:09.114Z,0.60
2022-12-19T02:47:08.985Z,0.64
2022-12-19T02:48:09.485Z,0.67
2022-12-19T02:49:08.965Z,0.62
2022-12-19T02:50:08.978Z,0.74
2022-12-19T02:51:08.954Z,0.64
2022-12-19T02:52:08.965Z,0.70
2022-12-19T02:53:08.960Z,0.72
2022-12-19T02:54:08.921Z,0.62
2022-12-19T02:55:08.913Z,0.71
2022-12-19T02:56:10.259Z,0.71
2022-12-19T02:57:08.874Z,0.74
2022-12-19T02:58:08.910Z,0.72
2022-12-19T02:59:08.978Z,0.74
2022-12-19T03:00:08.856Z,0.70
2022-12-19T03:01:08.943Z,0.71
2022-12-19T03:02:08.974Z,0.75
2022-12-19T03:03:08.924Z,0.68
2022-12-19T03:04:08.813Z,0.67
2022-12-19T03:05:08.803Z,0.78
2022-12-19T03:06:08.812Z,0.77
2022-12-19T03:07:08.793Z,0.78
2022-12-19T03:08:08.815Z,0.75
2022-12-19T03:09:08.763Z,0.82
2022-12-19T03:10:08.745Z,0.86
2022-12-19T03:11:08.758Z,0.80
2022-12-19T03:12:10.731Z,0.78
2022-12-19T03:13:09.747Z,0.80
2022-12-19T03:14:08.705Z,0.75
2022-12-19T03:15:08.815Z,0.90
2022-12-19T03:16:08.692Z,0.88
2022-12-19T03:17:08.733Z,0.88
2022-12-19T03:18:08.684Z,0.90
2022-12-19T03:19:08.694Z,0.93
2022-12-19T03:20:08.659Z,0.95
2022-12-19T03:21:08.832Z,0.89
2022-12-19T03:22:08.640Z,0.93
2022-12-19T03:23:08.614Z,0.96
2022-12-19T03:24:08.619Z,0.96
2022-12-19T03:25:08.592Z,0.92
2022-12-19T03:26:08.609Z,0.95
2022-12-19T03:27:08.649Z,0.96
2022-12-19T03:28:08.600Z,1.00
2022-12-19T03:29:08.555Z,0.99
2022-12-19T03:30:08.542Z,0.93
2022-12-19T03:31:08.689Z,0.98
2022-12-19T03:32:08.533Z,0.99
2022-12-19T03:33:08.558Z,1.04
2022-12-19T03:34:08.514Z,0.99
2022-12-19T03:35:08.497Z,1.04
2022-12-19T03:36:08.572Z,0.98
2022-12-19T03:37:08.481Z,1.06
2022-12-19T03:38:08.475Z,1.06
2022-12-19T03:39:08.461Z,1.02
2022-12-19T03:40:08.516Z,0.99
2022-12-19T03:41:08.431Z,0.98
2022-12-19T03:42:08.431Z,0.98
2022-12-19T03:43:08.432Z,1.13
2022-12-19T03:44:08.426Z,0.99
2022-12-19T03:45:08.378Z,0.96
2022-12-19T03:46:08.442Z,1.11
2022-12-19T03:47:08.506Z,0.99
2022-12-19T03:48:08.388Z,1.10
2022-12-19T03:49:08.347Z,1.10
2022-12-19T03:50:08.355Z,1.08
2022-12-19T03:51:08.331Z,1.04
2022-12-19T03:52:08.324Z,1.00
2022-12-19T03:53:08.306Z,1.00
2022-12-19T03:54:08.293Z,0.96
2022-12-19T03:55:08.300Z,0.95
2022-12-19T03:56:08.275Z,1.04
2022-12-19T03:57:08.275Z,0.96
2022-12-19T03:58:08.271Z,0.95
2022-12-19T03:59:08.246Z,1.04
2022-12-19T04:00:08.230Z,0.89
2022-12-19T04:01:08.248Z,1.06
2022-12-19T04:02:08.360Z,1.06
2022-12-19T04:03:08.405Z,1.11
2022-12-19T04:04:08.261Z,1.13
2022-12-19T04:05:08.190Z,1.11
2022-12-19T04:06:08.175Z,1.20
2022-12-19T04:07:08.158Z,1.10
2022-12-19T04:08:08.205Z,1.08
2022-12-19T04:09:08.158Z,1.08
2022-12-19T04:10:08.124Z,1.02
2022-12-19T04:11:08.120Z,1.04
2022-12-19T04:12:08.119Z,0.98
2022-12-19T04:13:08.195Z,0.96
2022-12-19T04:14:08.092Z,1.07
2022-12-19T04:15:08.088Z,0.96
2022-12-19T04:16:08.111Z,0.95
2022-12-19T04:17:08.052Z,1.02
2022-12-19T04:18:08.089Z,0.99
2022-12-19T04:19:08.041Z,1.07
2022-12-19T04:20:08.019Z,1.10
2022-12-19T04:21:08.006Z,0.96
2022-12-19T04:22:08.007Z,1.08
2022-12-19T04:23:08.007Z,1.02
2022-12-19T04:24:07.991Z,1.00
2022-12-19T04:25:08.016Z,1.00
2022-12-19T04:26:07.976Z,1.04
2022-12-19T04:27:07.980Z,0.96
2022-12-19T04:28:07.978Z,0.93
2022-12-19T04:29:07.942Z,1.06
2022-12-19T04:30:07.912Z,1.04
2022-12-19T04:31:07.963Z,0.96
2022-12-19T04:32:07.908Z,1.02
2022-12-19T04:33:08.089Z,1.08
2022-12-19T04:34:07.887Z,1.08
2022-12-19T04:35:07.982Z,0.99
2022-12-19T04:36:07.847Z,0.98
2022-12-19T04:37:07.920Z,1.04
2022-12-19T04:38:08.074Z,0.96
2022-12-19T04:39:07.832Z,0.96
2022-12-19T04:40:07.817Z,1.02
2022-12-19T04:41:07.795Z,1.07
2022-12-19T04:42:07.810Z,1.02
2022-12-19T04:43:07.791Z,1.02
2022-12-19T04:44:07.766Z,1.10
2022-12-19T04:45:07.755Z,0.98
2022-12-19T04:46:07.763Z,0.99
2022-12-19T04:47:07.732Z,0.99
2022-12-19T04:48:08.828Z,1.06
2022-12-19T04:49:07.749Z,0.96
2022-12-19T04:50:07.702Z,0.99
2022-12-19T04:51:07.797Z,1.10
2022-12-19T04:52:07.965Z,1.02
2022-12-19T04:53:07.678Z,1.07
2022-12-19T04:54:07.661Z,1.08
2022-12-19T04:55:07.650Z,1.07
2022-12-19T04:56:07.665Z,1.08
2022-12-19T04:57:07.643Z,1.07
2022-12-19T04:58:07.730Z,0.99
2022-12-19T04:59:07.612Z,1.02
2022-12-19T05:00:07.600Z,1.14
2022-12-19T05:01:07.604Z,1.18
2022-12-19T05:02:07.657Z,1.06
2022-12-19T05:03:07.702Z,1.10
2022-12-19T05:04:07.963Z,1.04
2022-12-19T05:05:07.549Z,1.06
2022-12-19T05:06:07.546Z,1.06
2022-12-19T05:07:07.620Z,1.17
2022-12-19T05:08:07.521Z,1.13
2022-12-19T05:09:07.827Z,1.10
2022-12-19T05:10:07.482Z,1.07
2022-12-19T05:11:07.560Z,1.08
2022-12-19T05:12:07.506Z,1.11
2022-12-19T05:13:07.534Z,1.08
2022-12-19T05:14:07.456Z,1.08
2022-12-19T05:15:07.433Z,1.08
2022-12-19T05:16:07.570Z,1.06
2022-12-19T05:17:07.419Z,1.11
2022-12-19T05:18:07.528Z,1.10
2022-12-19T05:19:07.388Z,1.11
2022-12-19T05:20:07.409Z,1.10
2022-12-19T05:21:07.374Z,1.10
2022-12-19T05:22:07.364Z,1.06
2022-12-19T05:23:15.230Z,1.16
2022-12-19T05:24:08.342Z,1.18
2022-12-19T05:25:07.329Z,1.21
2022-12-19T05:26:07.327Z,1.10
2022-12-19T05:27:07.321Z,1.17
2022-12-19T05:28:07.350Z,1.18
2022-12-19T05:29:07.323Z,1.11
2022-12-19T05:30:07.280Z,1.11
2022-12-19T05:31:07.332Z,1.21
2022-12-19T05:32:07.265Z,1.21
2022-12-19T05:33:07.237Z,1.20
2022-12-19T05:34:07.251Z,1.20
2022-12-19T05:35:07.247Z,1.20
2022-12-19T05:36:07.215Z,1.20
2022-12-19T05:37:07.238Z,1.14
2022-12-19T05:38:07.221Z,1.20
2022-12-19T05:39:07.289Z,1.20
2022-12-19T05:40:07.179Z,1.21
2022-12-19T05:41:07.160Z,1.20
2022-12-19T05:42:10.921Z,1.28
2022-12-19T05:43:08.176Z,1.25
2022-12-19T05:44:07.134Z,1.24
2022-12-19T05:45:07.160Z,1.29
2022-12-19T05:46:07.192Z,1.25
2022-12-19T05:47:07.087Z,1.29
2022-12-19T05:48:07.111Z,1.24
2022-12-19T05:49:07.082Z,1.24
2022-12-19T05:50:07.071Z,1.28
2022-12-19T05:51:07.067Z,1.20
2022-12-19T05:52:07.061Z,1.28
2022-12-19T05:53:07.066Z,1.20
2022-12-19T05:54:07.010Z,1.29
2022-12-19T05:55:07.119Z,1.16
2022-12-19T05:56:07.027Z,1.29
2022-12-19T05:57:06.975Z,1.28
2022-12-19T05:58:07.017Z,1.24
2022-12-19T05:59:06.977Z,1.26
2022-12-19T06:00:06.965Z,1.28
2022-12-19T06:01:06.979Z,1.25
2022-12-19T06:02:07.068Z,1.20
2022-12-19T06:03:07.042Z,1.24
2022-12-19T06:04:06.921Z,1.24
2022-12-19T06:05:06.971Z,1.18
2022-12-19T06:06:06.889Z,1.25
2022-12-19T06:07:06.885Z,1.18
2022-12-19T06:08:06.893Z,1.24
2022-12-19T06:09:06.906Z,1.18
2022-12-19T06:10:06.842Z,1.21
2022-12-19T06:11:06.966Z,1.21
2022-12-19T06:12:06.888Z,1.21
2022-12-19T06:13:06.814Z,1.25
2022-12-19T06:14:06.804Z,1.26
2022-12-19T06:15:06.822Z,1.25
2022-12-19T06:16:06.795Z,1.16
2022-12-19T06:17:06.837Z,1.14
2022-12-19T06:18:06.837Z,1.26
2022-12-19T06:19:06.766Z,1.20
2022-12-19T06:20:06.769Z,1.13
2022-12-19T06:21:06.749Z,1.24
2022-12-19T06:22:06.782Z,1.16
2022-12-19T06:23:06.710Z,1.25
2022-12-19T06:24:06.693Z,1.17
2022-12-19T06:25:06.679Z,1.17
2022-12-19T06:26:06.694Z,1.17
2022-12-19T06:27:06.769Z,1.25
2022-12-19T06:28:06.733Z,1.18
2022-12-19T06:29:06.641Z,1.21
2022-12-19T06:30:06.646Z,1.18
2022-12-19T06:31:06.753Z,1.21
2022-12-19T06:32:06.627Z,1.14
2022-12-19T06:33:06.651Z,1.08
2022-12-19T06:34:06.646Z,1.13
2022-12-19T06:35:06.595Z,1.18
2022-12-19T06:36:06.577Z,1.24
2022-12-19T06:37:08.317Z,1.16
2022-12-19T06:38:06.565Z,1.16
2022-12-19T06:39:06.584Z,1.17
2022-12-19T06:40:06.523Z,1.26
2022-12-19T06:41:06.511Z,1.18
2022-12-19T06:42:06.501Z,1.21
2022-12-19T06:43:06.641Z,1.11
2022-12-19T06:44:06.533Z,1.21
2022-12-19T06:45:06.531Z,1.21
2022-12-19T06:46:06.501Z,1.21
2022-12-19T06:47:06.453Z,1.29
2022-12-19T06:48:06.458Z,1.20
2022-12-19T06:49:06.468Z,1.24
2022-12-19T06:50:06.431Z,1.25
2022-12-19T06:51:06.427Z,1.26
2022-12-19T06:52:09.277Z,1.28
2022-12-19T06:53:06.414Z,1.21
2022-12-19T06:54:06.441Z,1.18
2022-12-19T06:55:06.388Z,1.20
2022-12-19T06:56:06.430Z,1.17
2022-12-19T06:57:06.344Z,1.18
2022-12-19T06:58:06.369Z,1.18
2022-12-19T06:59:06.499Z,1.14
2022-12-19T07:00:06.307Z,1.18
2022-12-19T07:01:06.432Z,1.20
2022-12-19T07:02:06.418Z,1.20
2022-12-19T07:03:06.362Z,1.18
2022-12-19T07:04:06.389Z,1.14
2022-12-19T07:05:06.258Z,1.21
2022-12-19T07:06:06.242Z,1.16
2022-12-19T07:07:06.229Z,1.13
2022-12-19T07:08:06.231Z,1.20
2022-12-19T07:09:06.241Z,1.18
2022-12-19T07:10:06.231Z,1.14
2022-12-19T07:11:06.265Z,1.17
2022-12-19T07:12:06.190Z,1.10
2022-12-19T07:13:06.195Z,1.18
2022-12-19T07:14:06.185Z,1.16
2022-12-19T07:15:06.178Z,1.14
2022-12-19T07:16:06.185Z,1.20
2022-12-19T07:17:06.159Z,1.18
2022-12-19T07:18:06.145Z,1.24
2022-12-19T07:19:06.117Z,1.21
2022-12-19T07:20:06.144Z,1.16
2022-12-19T07:21:06.184Z,1.21
2022-12-19T07:22:06.077Z,1.18
2022-12-19T07:23:06.110Z,1.16
2022-12-19T07:24:06.050Z,1.21
2022-12-19T07:25:06.051Z,1.17
2022-12-19T07:26:06.043Z,1.20
2022-12-19T07:27:06.026Z,1.25
2022-12-19T07:28:06.042Z,1.24
2022-12-19T07:29:06.022Z,1.31
2022-12-19T07:30:05.997Z,1.31
2022-12-19T07:31:06.011Z,1.29
2022-12-19T07:32:06.034Z,1.28
2022-12-19T07:33:07.336Z,1.31
2022-12-19T07:34:05.951Z,1.26
2022-12-19T07:35:05.960Z,1.25
2022-12-19T07:36:05.992Z,1.31
2022-12-19T07:37:05.942Z,1.28
2022-12-19T07:38:05.927Z,1.28
2022-12-19T07:39:06.023Z,1.29
2022-12-19T07:40:05.916Z,1.29
2022-12-19T07:41:05.873Z,1.28
2022-12-19T07:42:05.865Z,1.39
2022-12-19T07:43:05.945Z,1.28
2022-12-19T07:44:05.848Z,1.34
2022-12-19T07:45:05.824Z,1.36
2022-12-19T07:46:05.864Z,1.34
2022-12-19T07:47:05.921Z,1.34
2022-12-19T07:48:05.854Z,1.31
2022-12-19T07:49:05.789Z,1.34
2022-12-19T07:50:05.820Z,1.47
2022-12-19T07:51:05.764Z,1.47
2022-12-19T07:52:05.759Z,1.38
2022-12-19T07:53:05.881Z,1.46
2022-12-19T07:54:05.731Z,1.47
2022-12-19T07:55:05.748Z,1.44
2022-12-19T07:56:05.712Z,1.46
2022-12-19T07:57:05.712Z,1.44
2022-12-19T07:58:05.715Z,1.44
2022-12-19T07:59:05.694Z,1.47
2022-12-19T08:00:05.688Z,1.52
2022-12-19T08:01:05.706Z,1.57
2022-12-19T08:02:05.904Z,1.56
2022-12-19T08:03:05.841Z,1.65
2022-12-19T08:04:05.629Z,1.63
2022-12-19T08:05:05.617Z,1.68
2022-12-19T08:06:05.637Z,1.68
2022-12-19T08:07:05.633Z,1.71
2022-12-19T08:08:05.630Z,1.68
2022-12-19T08:09:05.605Z,1.67
2022-12-19T08:10:05.615Z,1.68
2022-12-19T08:11:05.571Z,1.74
2022-12-19T08:12:05.561Z,1.81
2022-12-19T08:13:05.580Z,1.79
2022-12-19T08:14:05.549Z,1.88
2022-12-19T08:15:05.586Z,1.89
2022-12-19T08:16:05.541Z,1.92
2022-12-19T08:17:21.607Z,1.89
2022-12-19T08:18:06.516Z,1.93
2022-12-19T08:19:05.583Z,1.88
2022-12-19T08:20:05.462Z,1.88
2022-12-19T08:21:05.502Z,1.89
2022-12-19T08:22:05.459Z,1.98
2022-12-19T08:23:05.491Z,1.89
2022-12-19T08:24:05.433Z,1.88
2022-12-19T08:25:05.416Z,1.88
2022-12-19T08:26:05.419Z,1.95
2022-12-19T08:27:05.400Z,1.90
2022-12-19T08:28:05.421Z,1.98
2022-12-19T08:29:05.388Z,1.98
2022-12-19T08:30:05.384Z,1.89
2022-12-19T08:31:05.447Z,2.01
2022-12-19T08:32:05.357Z,2.12
2022-12-19T08:33:05.421Z,2.04
2022-12-19T08:34:05.319Z,2.09
2022-12-19T08:35:05.430Z,2.14
2022-12-19T08:36:05.345Z,2.25
2022-12-19T08:37:05.291Z,2.20
2022-12-19T08:38:05.317Z,2.18
2022-12-19T08:39:05.355Z,2.11
2022-12-19T08:40:05.258Z,2.05
2022-12-19T08:41:05.233Z,2.15
2022-12-19T08:42:05.285Z,2.09
2022-12-19T08:43:05.254Z,2.14
2022-12-19T08:44:05.234Z,2.02
2022-12-19T08:45:05.200Z,2.05
2022-12-19T08:46:05.300Z,2.12
2022-12-19T08:47:05.212Z,2.14
2022-12-19T08:48:05.187Z,2.29
2022-12-19T08:49:05.242Z,2.37
2022-12-19T08:50:05.136Z,2.38
2022-12-19T08:51:05.242Z,2.47
2022-12-19T08:52:05.132Z,2.40
2022-12-19T08:53:05.152Z,2.41
2022-12-19T08:54:05.258Z,2.45
2022-12-19T08:55:05.112Z,2.43
2022-12-19T08:56:05.092Z,2.37
2022-12-19T08:57:05.154Z,2.43
2022-12-19T08:58:05.091Z,2.41
2022-12-19T08:59:05.075Z,2.47
2022-12-19T09:00:05.065Z,2.51
2022-12-19T09:01:05.921Z,2.53
2022-12-19T09:02:06.182Z,2.69
2022-12-19T09:03:05.227Z,2.73
2022-12-19T09:05:11.188Z,2.83
2022-12-19T09:05:58.292Z,2.90
2022-12-19T09:06:09.225Z,2.99
2022-12-19T09:07:06.073Z,3.10
2022-12-19T09:08:04.977Z,3.45
2022-12-19T09:09:04.949Z,3.67
2022-12-19T09:10:04.939Z,3.98
2022-12-19T09:11:04.933Z,3.95
2022-12-19T09:12:04.954Z,4.16
2022-12-19T09:13:04.911Z,4.44
2022-12-19T09:14:04.880Z,4.43
2022-12-19T09:15:04.896Z,4.34
2022-12-19T09:16:04.866Z,3.99
2022-12-19T09:17:05.114Z,3.98
2022-12-19T09:18:04.985Z,3.74
2022-12-19T09:19:04.848Z,3.75
2022-12-19T09:20:04.818Z,3.64
2022-12-19T09:21:07.881Z,3.44
2022-12-19T09:22:04.827Z,3.33
2022-12-19T09:23:04.990Z,3.08
2022-12-19T09:24:07.975Z,3.01
2022-12-19T09:25:04.792Z,3.02
2022-12-19T09:26:04.770Z,3.04
2022-12-19T09:27:04.754Z,3.08
2022-12-19T09:29:13.682Z,3.22
2022-12-19T09:30:05.763Z,3.13
2022-12-19T09:31:04.746Z,3.20
2022-12-19T09:32:04.702Z,3.31
2022-12-19T09:33:04.697Z,3.26
2022-12-19T09:34:04.680Z,3.35
2022-12-19T09:35:04.662Z,3.37
2022-12-19T09:36:05.014Z,3.35
2022-12-19T09:37:04.677Z,3.41
2022-12-19T09:38:04.680Z,3.37
2022-12-19T09:39:04.744Z,3.17
2022-12-19T09:40:04.608Z,3.15
2022-12-19T09:41:04.607Z,3.26
2022-12-19T09:42:04.594Z,3.17
2022-12-19T09:43:04.616Z,3.16
2022-12-19T09:44:04.602Z,3.25
2022-12-19T09:45:04.600Z,3.26
2022-12-19T09:46:04.583Z,3.31
2022-12-19T09:47:04.585Z,3.30
2022-12-19T09:48:05.707Z,3.46
2022-12-19T09:49:04.510Z,3.57
2022-12-19T09:50:04.506Z,3.39
2022-12-19T09:51:10.271Z,3.35
2022-12-19T09:52:05.532Z,3.31
2022-12-19T09:53:04.493Z,3.33
2022-12-19T09:54:04.454Z,3.35
2022-12-19T09:55:04.576Z,3.68
2022-12-19T09:56:04.446Z,3.68
2022-12-19T09:57:04.457Z,3.75
2022-12-19T09:58:04.711Z,3.74
2022-12-19T09:59:04.439Z,3.88
2022-12-19T10:00:04.401Z,3.86
2022-12-19T10:01:04.391Z,4.06
2022-12-19T10:02:04.524Z,4.20
2022-12-19T10:03:04.484Z,4.44
2022-12-19T10:04:04.473Z,4.69
2022-12-19T10:05:17.058Z,5.14
2022-12-19T10:07:11.329Z,5.32
2022-12-19T10:07:22.357Z,5.60
2022-12-19T10:08:09.893Z,5.80
2022-12-19T10:10:00.989Z,6.02
2022-12-19T10:12:35.055Z,6.46
2022-12-19T10:12:35.501Z,6.50
2022-12-19T10:12:39.118Z,6.57
2022-12-19T10:13:13.482Z,6.40
2022-12-19T10:14:05.299Z,6.27
2022-12-19T10:15:04.246Z,6.11
2022-12-19T10:16:04.273Z,6.01
2022-12-19T10:17:25.264Z,6.48
2022-12-19T10:18:05.208Z,6.93
2022-12-19T10:19:04.211Z,7.01
2022-12-19T10:20:04.193Z,7.24
2022-12-19T10:21:04.188Z,7.36
2022-12-19T10:22:19.817Z,7.42
2022-12-19T10:23:05.153Z,7.60
2022-12-19T10:24:04.169Z,7.50
2022-12-19T10:25:08.950Z,7.52
2022-12-19T10:26:05.121Z,7.76
2022-12-19T10:27:04.224Z,8.02
2022-12-19T10:28:04.098Z,8.09
2022-12-19T10:29:05.362Z,7.33
2022-12-19T10:30:04.089Z,7.14
2022-12-19T10:31:12.469Z,7.15
2022-12-19T10:32:05.145Z,7.12
2022-12-19T10:33:04.079Z,6.97
2022-12-19T10:34:04.092Z,7.14
2022-12-19T10:35:04.037Z,7.26
2022-12-19T10:36:04.021Z,7.19
2022-12-19T10:37:24.348Z,7.24
2022-12-19T10:38:05.002Z,7.09
2022-12-19T10:39:04.006Z,7.24
2022-12-19T10:40:03.979Z,7.11
2022-12-19T10:41:04.000Z,6.82
2022-12-19T10:42:03.962Z,6.65
2022-12-19T10:43:10.954Z,6.82
2022-12-19T10:44:04.954Z,7.12
2022-12-19T10:45:03.952Z,7.23
2022-12-19T10:46:04.006Z,7.01
2022-12-19T10:47:04.552Z,7.21
2022-12-19T10:48:04.011Z,6.91
2022-12-19T10:49:03.962Z,6.82
2022-12-19T10:50:09.243Z,6.82
2022-12-19T10:51:06.097Z,7.23
2022-12-19T10:52:03.875Z,7.15
2022-12-19T10:53:03.854Z,7.11
2022-12-19T10:54:03.860Z,7.18
2022-12-19T10:55:03.863Z,7.24
2022-12-19T10:56:03.867Z,6.90
2022-12-19T10:57:03.833Z,6.94
2022-12-19T10:58:03.791Z,6.63
2022-12-19T10:59:05.228Z,6.69
2022-12-19T11:00:03.822Z,6.53
2022-12-19T11:01:03.773Z,6.03
2022-12-19T11:02:07.211Z,5.98
2022-12-19T11:03:04.920Z,5.83
2022-12-19T11:04:03.801Z,5.81
2022-12-19T11:05:03.793Z,5.74
2022-12-19T11:06:03.789Z,5.74
2022-12-19T11:07:03.784Z,5.74
2022-12-19T11:08:03.681Z,5.81
2022-12-19T11:09:03.737Z,5.95
2022-12-19T11:10:39.917Z,6.10
2022-12-19T11:12:43.875Z,6.36
2022-12-19T11:14:49.905Z,6.21
2022-12-19T11:17:23.876Z,6.06
2022-12-19T11:17:39.793Z,5.96
2022-12-19T11:21:18.736Z,5.93
2022-12-19T11:23:03.852Z,6.01
2022-12-19T11:25:05.821Z,5.90
2022-12-19T11:25:29.593Z,5.78
2022-12-19T11:29:18.755Z,5.65
2022-12-19T11:29:27.285Z,5.75
2022-12-19T11:29:38.524Z,5.70
2022-12-19T11:29:40.719Z,5.62
2022-12-19T11:29:42.002Z,5.52
2022-12-19T11:29:55.167Z,5.60
2022-12-19T11:30:05.577Z,5.63
2022-12-19T11:30:08.656Z,5.59
2022-12-19T11:30:26.149Z,5.45
2022-12-19T11:30:38.266Z,5.73
2022-12-19T11:30:41.544Z,5.78
2022-12-19T11:32:38.417Z,5.69
2022-12-19T11:33:04.449Z,5.88
2022-12-19T11:34:03.554Z,5.95
2022-12-19T11:35:03.407Z,5.96
2022-12-19T11:36:03.362Z,6.20
2022-12-19T11:37:03.368Z,6.51
2022-12-19T11:38:03.342Z,6.73
2022-12-19T11:39:03.622Z,6.79
2022-12-19T11:40:03.369Z,7.23
2022-12-19T11:41:03.320Z,7.60
2022-12-19T11:42:03.295Z,7.81
2022-12-19T11:43:42.592Z,8.32
2022-12-19T11:44:04.296Z,8.47
2022-12-19T11:45:03.298Z,8.29
2022-12-19T11:46:03.252Z,7.95
2022-12-19T11:47:03.357Z,7.91
2022-12-19T11:48:03.240Z,7.79
2022-12-19T11:49:03.279Z,7.57
2022-12-19T11:50:03.298Z,7.58
2022-12-19T11:51:03.227Z,7.42
2022-12-19T11:52:03.194Z,7.29
2022-12-19T11:53:05.145Z,7.11
2022-12-19T11:54:03.184Z,6.82
2022-12-19T11:55:03.198Z,6.57
2022-12-19T11:56:03.157Z,6.54
2022-12-19T11:57:03.155Z,6.42
2022-12-19T11:58:03.166Z,6.06
2022-12-19T11:59:03.138Z,6.01
2022-12-19T12:00:05.626Z,6.05
2022-12-19T12:01:03.122Z,6.05
2022-12-19T12:02:03.138Z,5.81
2022-12-19T12:03:03.157Z,5.73
2022-12-19T12:04:03.503Z,5.81
2022-12-19T12:05:03.144Z,5.69
2022-12-19T12:06:03.043Z,5.80
2022-12-19T12:07:08.392Z,5.74
2022-12-19T12:09:21.998Z,5.78
2022-12-19T12:11:18.256Z,5.65
2022-12-19T12:14:16.333Z,5.51
2022-12-19T12:14:24.102Z,5.58
2022-12-19T12:18:19.089Z,5.67
2022-12-19T12:21:21.313Z,5.73
2022-12-19T12:24:48.066Z,5.66
2022-12-19T12:26:19.113Z,5.74
2022-12-19T12:28:57.218Z,5.78
2022-12-19T12:31:07.462Z,6.19
2022-12-19T12:31:14.422Z,5.83
2022-12-19T12:31:18.960Z,6.16
2022-12-19T12:31:22.672Z,5.92
2022-12-19T12:31:26.457Z,5.92
2022-12-19T12:31:29.757Z,5.93
2022-12-19T12:31:40.237Z,6.27
2022-12-19T12:31:42.783Z,6.17
2022-12-19T12:31:43.406Z,6.36
2022-12-19T12:31:47.727Z,6.45
2022-12-19T12:31:50.445Z,6.06
2022-12-19T12:31:52.577Z,6.27
2022-12-19T12:31:57.248Z,6.05
2022-12-19T12:32:02.265Z,5.90
2022-12-19T12:35:47.067Z,5.93
2022-12-19T12:35:51.346Z,5.81
2022-12-19T12:35:54.536Z,5.78
2022-12-19T12:37:10.960Z,5.93
2022-12-19T12:38:24.906Z,6.02
2022-12-19T12:39:03.933Z,6.03
2022-12-19T12:40:02.687Z,5.95
2022-12-19T12:41:02.699Z,6.01
2022-12-19T12:42:02.661Z,5.95
2022-12-19T12:43:02.827Z,5.92
2022-12-19T12:44:02.646Z,5.83
2022-12-19T12:45:02.635Z,5.77
2022-12-19T12:46:02.683Z,5.93
2022-12-19T12:47:02.609Z,5.81
2022-12-19T12:48:02.594Z,5.93
2022-12-19T12:49:02.617Z,5.84
2022-12-19T12:50:02.572Z,5.83
2022-12-19T12:51:02.581Z,5.74
2022-12-19T12:52:02.591Z,5.75
2022-12-19T12:53:02.569Z,5.69
2022-12-19T12:54:02.525Z,5.77
2022-12-19T12:55:02.511Z,5.81
2022-12-19T12:56:03.153Z,5.80
2022-12-19T12:57:02.507Z,5.80
2022-12-19T12:58:02.477Z,5.81
2022-12-19T12:59:02.516Z,5.80
2022-12-19T13:00:02.449Z,5.77
2022-12-19T13:01:02.568Z,5.63
2022-12-19T13:02:02.642Z,5.63
2022-12-19T13:03:02.545Z,5.51
2022-12-19T13:04:02.430Z,5.47
2022-12-19T13:05:02.416Z,5.45
2022-12-19T13:06:02.379Z,5.42
2022-12-19T13:07:02.396Z,5.58
2022-12-19T13:08:02.357Z,5.38
2022-12-19T13:09:02.467Z,5.42
2022-12-19T13:10:02.346Z,5.51
2022-12-19T13:11:02.338Z,5.62
2022-12-19T13:12:02.330Z,5.77
2022-12-19T13:13:02.312Z,5.77
2022-12-19T13:14:02.328Z,5.75
2022-12-19T13:15:02.329Z,5.70
2022-12-19T13:16:02.276Z,5.75
2022-12-19T13:17:02.444Z,5.70
2022-12-19T13:18:02.249Z,5.63
2022-12-19T13:19:02.266Z,5.73
2022-12-19T13:20:02.247Z,5.80
2022-12-19T13:21:02.253Z,5.87
2022-12-19T13:22:02.219Z,6.11